This is the latest recevied weather packets stored in our database for station/object KG4LKY-5. If no packets are shown the sender has not sent any weather packets the latest 10 day(s).
| Time | Temp. | Humidity | Pressure | Rain* | Wind** | Luminosity | Snow |
|---|---|---|---|---|---|---|---|
| 1777700495 | 7.22° C | 84% | 1017.3 hPa | 0 mm | - | - | - |
| 1777700194 | 7.22° C | 84% | 1017.3 hPa | 0 mm | - | - | - |
| 1777699594 | 7.22° C | 83% | 1017.3 hPa | 0 mm | - | - | - |
| 1777699293 | 7.78° C | 83% | 1017.3 hPa | 0 mm | - | - | - |
| 1777698993 | 7.78° C | 81% | 1017.3 hPa | 0 mm | - | - | - |
| 1777698693 | 7.22° C | 83% | 1017.4 hPa | 0 mm | - | - | - |
| 1777698393 | 7.22° C | 83% | 1017.4 hPa | 0 mm | - | - | - |
| 1777698092 | 7.78° C | 81% | 1017.4 hPa | 0 mm | - | - | - |
| 1777697792 | 7.78° C | 82% | 1017.3 hPa | 0 mm | - | - | - |
| 1777697492 | 7.78° C | 79% | 1017.3 hPa | 0 mm | - | - | - |
| 1777697192 | 7.78° C | 81% | 1017.3 hPa | 0 mm | - | - | - |
| 1777696591 | 7.78° C | 79% | 1017.2 hPa | 0 mm | - | - | - |
| 1777696292 | 8.33° C | 75% | 1017.2 hPa | 0 mm | - | - | - |
| 1777695990 | 7.78° C | 75% | 1017.2 hPa | 0 mm | - | - | - |
| 1777695690 | 8.33° C | 76% | 1017.4 hPa | 0 mm | - | - | - |
| 1777695390 | 7.22° C | 78% | 1017.5 hPa | 0 mm | - | - | - |
| 1777695090 | 8.33° C | 75% | 1017.6 hPa | 0 mm | - | - | - |
| 1777694789 | 8.33° C | 76% | 1017.5 hPa | 0 mm | - | - | - |
| 1777694489 | 8.89° C | 75% | 1017.5 hPa | 0 mm | - | - | - |
| 1777694189 | 8.33° C | 76% | 1017.5 hPa | 0 mm | - | - | - |
| 1777693888 | 8.89° C | 73% | 1017.6 hPa | 0.25 mm | - | - | - |
| 1777693588 | 8.89° C | 74% | 1017.6 hPa | 0.25 mm | - | - | - |
| 1777692988 | 8.33° C | 76% | 1017.5 hPa | 0.25 mm | - | - | - |
| 1777692387 | 8.33° C | 74% | 1017.5 hPa | 0.25 mm | - | - | - |
| 1777692087 | 8.89° C | 75% | 1017.5 hPa | 0.25 mm | - | - | - |
* Rain since midnight (hover to see other rain measurements)
** Current wind speed in m/s (hover to see current wind gust speed)